sensor_id;sensor_type;location;lat;lon;timestamp;pressure;altitude;pressure_sealevel;temperature;humidity
48035;BME280;33812;46.480;6.834;2022-08-19T00:03:20;93415.13;;;24.11;49.21
48035;BME280;33812;46.480;6.834;2022-08-19T00:07:22;93424.66;;;24.10;49.69
48035;BME280;33812;46.480;6.834;2022-08-19T00:11:24;93421.09;;;24.10;50.12
48035;BME280;33812;46.480;6.834;2022-08-19T00:15:27;93426.84;;;24.06;50.38
48035;BME280;33812;46.480;6.834;2022-08-19T00:19:31;93432.69;;;24.08;50.59
48035;BME280;33812;46.480;6.834;2022-08-19T00:23:34;93426.38;;;24.08;50.67
48035;BME280;33812;46.480;6.834;2022-08-19T00:27:37;93429.63;;;24.06;50.82
48035;BME280;33812;46.480;6.834;2022-08-19T00:31:39;93430.53;;;24.03;50.71
48035;BME280;33812;46.480;6.834;2022-08-19T00:35:43;93432.84;;;24.05;50.78
48035;BME280;33812;46.480;6.834;2022-08-19T00:39:45;93423.59;;;23.98;51.01
48035;BME280;33812;46.480;6.834;2022-08-19T00:43:57;93418.38;;;24.00;50.70
48035;BME280;33812;46.480;6.834;2022-08-19T00:47:58;93424.97;;;24.03;50.46
48035;BME280;33812;46.480;6.834;2022-08-19T00:52:08;93429.78;;;24.02;50.58
48035;BME280;33812;46.480;6.834;2022-08-19T00:56:12;93426.06;;;24.06;50.40
48035;BME280;33812;46.480;6.834;2022-08-19T01:00:18;93429.00;;;24.02;50.84
48035;BME280;33812;46.480;6.834;2022-08-19T01:04:20;93433.63;;;23.96;50.83
48035;BME280;33812;46.480;6.834;2022-08-19T01:08:23;93423.78;;;23.95;51.09
48035;BME280;33812;46.480;6.834;2022-08-19T01:12:25;93426.53;;;23.95;51.09
48035;BME280;33812;46.480;6.834;2022-08-19T01:16:28;93427.91;;;23.99;50.91
48035;BME280;33812;46.480;6.834;2022-08-19T01:20:32;93426.22;;;23.93;50.68
48035;BME280;33812;46.480;6.834;2022-08-19T01:24:37;93427.00;;;23.93;50.71
48035;BME280;33812;46.480;6.834;2022-08-19T01:28:40;93416.22;;;23.95;50.91
48035;BME280;33812;46.480;6.834;2022-08-19T01:32:42;93414.50;;;23.98;50.28
48035;BME280;33812;46.480;6.834;2022-08-19T01:36:46;93401.56;;;23.95;50.50
48035;BME280;33812;46.480;6.834;2022-08-19T01:40:52;93408.63;;;23.96;50.23
48035;BME280;33812;46.480;6.834;2022-08-19T01:44:54;93409.41;;;23.96;49.85
48035;BME280;33812;46.480;6.834;2022-08-19T01:48:56;93411.13;;;23.94;49.82
48035;BME280;33812;46.480;6.834;2022-08-19T01:52:59;93423.16;;;23.90;49.59
48035;BME280;33812;46.480;6.834;2022-08-19T01:57:05;93424.22;;;23.93;50.06
48035;BME280;33812;46.480;6.834;2022-08-19T02:01:08;93422.81;;;23.98;50.13
48035;BME280;33812;46.480;6.834;2022-08-19T02:05:11;93431.16;;;23.98;50.17
48035;BME280;33812;46.480;6.834;2022-08-19T02:09:13;93449.53;;;23.95;49.96
48035;BME280;33812;46.480;6.834;2022-08-19T02:13:17;93462.00;;;23.90;50.31
48035;BME280;33812;46.480;6.834;2022-08-19T02:17:19;93460.31;;;23.93;50.08
48035;BME280;33812;46.480;6.834;2022-08-19T02:21:22;93454.91;;;23.89;50.32
48035;BME280;33812;46.480;6.834;2022-08-19T02:25:24;93458.31;;;23.94;50.04
48035;BME280;33812;46.480;6.834;2022-08-19T02:29:27;93462.94;;;23.97;50.44
48035;BME280;33812;46.480;6.834;2022-08-19T02:33:29;93463.72;;;23.88;50.38
48035;BME280;33812;46.480;6.834;2022-08-19T02:37:31;93458.47;;;23.90;50.47
48035;BME280;33812;46.480;6.834;2022-08-19T02:41:50;93468.47;;;23.87;50.08
48035;BME280;33812;46.480;6.834;2022-08-19T02:45:54;93467.88;;;23.93;49.74
48035;BME280;33812;46.480;6.834;2022-08-19T02:49:56;93470.63;;;23.93;49.85
48035;BME280;33812;46.480;6.834;2022-08-19T02:53:57;93467.41;;;23.94;49.95
48035;BME280;33812;46.480;6.834;2022-08-19T02:58:00;93469.69;;;23.96;49.57
48035;BME280;33812;46.480;6.834;2022-08-19T03:02:03;93470.78;;;23.89;49.76
48035;BME280;33812;46.480;6.834;2022-08-19T03:06:09;93478.38;;;23.88;49.62
48035;BME280;33812;46.480;6.834;2022-08-19T03:10:10;93485.44;;;23.80;50.10
48035;BME280;33812;46.480;6.834;2022-08-19T03:14:13;93484.06;;;23.75;50.44
48035;BME280;33812;46.480;6.834;2022-08-19T03:18:17;93490.69;;;23.69;50.52
48035;BME280;33812;46.480;6.834;2022-08-19T03:22:19;93499.66;;;23.73;50.16
48035;BME280;33812;46.480;6.834;2022-08-19T03:26:21;93496.38;;;23.84;50.24
48035;BME280;33812;46.480;6.834;2022-08-19T03:30:23;93491.94;;;23.86;49.96
48035;BME280;33812;46.480;6.834;2022-08-19T03:34:28;93493.00;;;23.89;49.99
48035;BME280;33812;46.480;6.834;2022-08-19T03:38:30;93496.84;;;23.91;49.60
48035;BME280;33812;46.480;6.834;2022-08-19T03:42:32;93502.72;;;23.84;49.80
48035;BME280;33812;46.480;6.834;2022-08-19T03:46:36;93499.94;;;23.75;49.95
48035;BME280;33812;46.480;6.834;2022-08-19T03:50:39;93508.72;;;23.73;50.31
48035;BME280;33812;46.480;6.834;2022-08-19T03:54:42;93510.28;;;23.74;50.03
48035;BME280;33812;46.480;6.834;2022-08-19T03:58:45;93515.19;;;23.61;51.01
48035;BME280;33812;46.480;6.834;2022-08-19T04:02:48;93517.19;;;23.60;50.53
48035;BME280;33812;46.480;6.834;2022-08-19T04:06:52;93523.22;;;23.59;50.78
48035;BME280;33812;46.480;6.834;2022-08-19T04:10:54;93527.66;;;23.56;51.00
48035;BME280;33812;46.480;6.834;2022-08-19T04:14:56;93526.44;;;23.66;50.95
48035;BME280;33812;46.480;6.834;2022-08-19T04:19:00;93527.22;;;23.76;50.35
48035;BME280;33812;46.480;6.834;2022-08-19T04:23:04;93526.78;;;23.78;50.11
48035;BME280;33812;46.480;6.834;2022-08-19T04:27:05;93525.06;;;23.81;50.06
48035;BME280;33812;46.480;6.834;2022-08-19T04:31:12;93536.94;;;23.81;50.51
48035;BME280;33812;46.480;6.834;2022-08-19T04:35:15;93533.97;;;23.66;50.54
48035;BME280;33812;46.480;6.834;2022-08-19T04:39:20;93532.63;;;23.71;50.28
48035;BME280;33812;46.480;6.834;2022-08-19T04:43:22;93539.09;;;23.67;50.52
48035;BME280;33812;46.480;6.834;2022-08-19T04:47:23;93539.09;;;23.67;51.02
48035;BME280;33812;46.480;6.834;2022-08-19T04:51:24;93547.09;;;23.75;50.44
48035;BME280;33812;46.480;6.834;2022-08-19T04:55:28;93552.03;;;23.71;51.15
48035;BME280;33812;46.480;6.834;2022-08-19T04:59:29;93559.59;;;23.79;50.85
48035;BME280;33812;46.480;6.834;2022-08-19T05:03:33;93562.22;;;23.74;50.91
48035;BME280;33812;46.480;6.834;2022-08-19T05:07:34;93567.59;;;23.68;51.33
48035;BME280;33812;46.480;6.834;2022-08-19T05:11:38;93563.28;;;23.76;50.75
48035;BME280;33812;46.480;6.834;2022-08-19T05:15:40;93578.56;;;23.81;51.11
48035;BME280;33812;46.480;6.834;2022-08-19T05:19:43;93578.41;;;23.75;50.74
48035;BME280;33812;46.480;6.834;2022-08-19T05:24:03;93581.63;;;23.74;50.82
48035;BME280;33812;46.480;6.834;2022-08-19T05:28:10;93577.00;;;23.71;50.98
48035;BME280;33812;46.480;6.834;2022-08-19T05:32:12;93577.00;;;23.80;50.97
48035;BME280;33812;46.480;6.834;2022-08-19T05:36:14;93573.94;;;23.78;50.81
48035;BME280;33812;46.480;6.834;2022-08-19T05:40:15;93585.97;;;23.84;50.48
48035;BME280;33812;46.480;6.834;2022-08-19T05:44:19;93593.97;;;23.82;50.84
48035;BME280;33812;46.480;6.834;2022-08-19T05:48:21;93584.13;;;23.81;50.29
48035;BME280;33812;46.480;6.834;2022-08-19T05:52:23;93582.66;;;22.53;54.07
48035;BME280;33812;46.480;6.834;2022-08-19T05:56:25;93579.72;;;23.42;51.75
48035;BME280;33812;46.480;6.834;2022-08-19T06:00:28;93594.28;;;23.65;51.26
48035;BME280;33812;46.480;6.834;2022-08-19T06:04:30;93597.03;;;23.65;51.11
48035;BME280;33812;46.480;6.834;2022-08-19T06:08:34;93595.81;;;23.66;51.36
48035;BME280;33812;46.480;6.834;2022-08-19T06:12:37;93609.50;;;23.61;51.47
48035;BME280;33812;46.480;6.834;2022-08-19T06:16:45;93609.66;;;23.66;51.63
48035;BME280;33812;46.480;6.834;2022-08-19T06:20:48;93620.00;;;23.66;51.66
48035;BME280;33812;46.480;6.834;2022-08-19T06:24:50;93618.28;;;23.59;52.07
48035;BME280;33812;46.480;6.834;2022-08-19T06:28:53;93621.97;;;23.56;52.09
48035;BME280;33812;46.480;6.834;2022-08-19T06:32:56;93631.84;;;23.57;52.01
48035;BME280;33812;46.480;6.834;2022-08-19T06:37:05;93639.88;;;23.64;51.77
48035;BME280;33812;46.480;6.834;2022-08-19T06:41:17;93639.59;;;23.72;51.36
48035;BME280;33812;46.480;6.834;2022-08-19T06:45:18;93648.50;;;23.66;51.16
48035;BME280;33812;46.480;6.834;2022-08-19T06:49:22;93654.97;;;23.63;51.13
48035;BME280;33812;46.480;6.834;2022-08-19T06:53:25;93651.75;;;23.65;51.18
48035;BME280;33812;46.480;6.834;2022-08-19T06:57:28;93665.63;;;23.65;50.87
48035;BME280;33812;46.480;6.834;2022-08-19T07:01:35;93674.41;;;23.63;51.02
48035;BME280;33812;46.480;6.834;2022-08-19T07:05:40;93674.59;;;23.69;51.05
48035;BME280;33812;46.480;6.834;2022-08-19T07:09:43;93675.00;;;23.58;50.01
48035;BME280;33812;46.480;6.834;2022-08-19T07:13:45;93678.38;;;23.53;50.19
48035;BME280;33812;46.480;6.834;2022-08-19T07:17:48;93693.44;;;23.52;50.23
48035;BME280;33812;46.480;6.834;2022-08-19T07:21:54;93701.09;;;23.70;50.07
48035;BME280;33812;46.480;6.834;2022-08-19T07:25:56;93694.28;;;23.71;50.27
48035;BME280;33812;46.480;6.834;2022-08-19T07:29:58;93691.38;;;23.75;50.30
48035;BME280;33812;46.480;6.834;2022-08-19T07:34:09;93702.63;;;23.71;50.19
48035;BME280;33812;46.480;6.834;2022-08-19T07:38:16;93697.53;;;23.70;50.65
48035;BME280;33812;46.480;6.834;2022-08-19T07:42:18;93692.91;;;23.66;50.58
48035;BME280;33812;46.480;6.834;2022-08-19T07:46:21;93706.78;;;23.66;50.78
48035;BME280;33812;46.480;6.834;2022-08-19T07:50:23;93700.91;;;23.64;51.08
48035;BME280;33812;46.480;6.834;2022-08-19T07:54:30;93702.59;;;23.62;51.51
48035;BME280;33812;46.480;6.834;2022-08-19T07:58:35;93711.53;;;23.57;52.28
48035;BME280;33812;46.480;6.834;2022-08-19T08:02:37;93710.41;;;23.54;52.31
48035;BME280;33812;46.480;6.834;2022-08-19T08:06:43;93709.22;;;23.55;52.26
48035;BME280;33812;46.480;6.834;2022-08-19T08:11:05;93721.97;;;23.52;52.92
48035;BME280;33812;46.480;6.834;2022-08-19T08:15:08;93719.34;;;23.49;53.04
48035;BME280;33812;46.480;6.834;2022-08-19T08:19:12;93726.34;;;23.40;53.45
48035;BME280;33812;46.480;6.834;2022-08-19T08:23:15;93723.09;;;23.33;53.91
48035;BME280;33812;46.480;6.834;2022-08-19T08:27:31;93732.34;;;23.39;53.56
48035;BME280;33812;46.480;6.834;2022-08-19T08:31:34;93731.03;;;23.43;53.25
48035;BME280;33812;46.480;6.834;2022-08-19T08:35:36;93735.97;;;23.49;53.07
48035;BME280;33812;46.480;6.834;2022-08-19T08:39:43;93731.66;;;23.48;52.99
48035;BME280;33812;46.480;6.834;2022-08-19T08:43:48;93736.16;;;23.54;52.89
48035;BME280;33812;46.480;6.834;2022-08-19T08:47:53;93737.56;;;23.59;52.25
48035;BME280;33812;46.480;6.834;2022-08-19T08:52:04;93749.31;;;23.63;52.13
48035;BME280;33812;46.480;6.834;2022-08-19T08:56:06;93752.41;;;23.65;52.06
48035;BME280;33812;46.480;6.834;2022-08-19T09:00:18;93753.16;;;23.66;52.33
48035;BME280;33812;46.480;6.834;2022-08-19T09:04:21;93748.66;;;23.59;52.46
48035;BME280;33812;46.480;6.834;2022-08-19T09:08:33;93767.50;;;23.64;52.56
48035;BME280;33812;46.480;6.834;2022-08-19T09:12:44;93768.88;;;23.60;52.77
48035;BME280;33812;46.480;6.834;2022-08-19T09:16:51;93772.56;;;23.66;52.71
48035;BME280;33812;46.480;6.834;2022-08-19T09:20:53;93776.41;;;23.59;52.46
48035;BME280;33812;46.480;6.834;2022-08-19T09:24:56;93785.25;;;23.67;52.66
48035;BME280;33812;46.480;6.834;2022-08-19T09:28:58;93779.50;;;23.61;53.27
48035;BME280;33812;46.480;6.834;2022-08-19T09:33:03;93789.06;;;23.60;52.79
48035;BME280;33812;46.480;6.834;2022-08-19T09:37:07;93788.78;;;23.67;52.33
48035;BME280;33812;46.480;6.834;2022-08-19T09:41:10;93802.34;;;23.65;52.94
48035;BME280;33812;46.480;6.834;2022-08-19T09:45:14;93793.88;;;23.69;52.88
48035;BME280;33812;46.480;6.834;2022-08-19T09:49:18;93804.53;;;23.71;53.26
48035;BME280;33812;46.480;6.834;2022-08-19T09:53:21;93814.53;;;23.68;53.25
48035;BME280;33812;46.480;6.834;2022-08-19T09:57:23;93805.13;;;23.65;53.36
48035;BME280;33812;46.480;6.834;2022-08-19T10:01:27;93816.53;;;23.67;52.98
48035;BME280;33812;46.480;6.834;2022-08-19T10:05:31;93814.97;;;23.66;53.35
48035;BME280;33812;46.480;6.834;2022-08-19T10:09:51;93819.75;;;23.66;53.02
48035;BME280;33812;46.480;6.834;2022-08-19T10:13:53;93817.44;;;23.64;53.35
48035;BME280;33812;46.480;6.834;2022-08-19T10:17:55;93810.78;;;23.62;53.01
48035;BME280;33812;46.480;6.834;2022-08-19T10:21:58;93812.19;;;23.66;53.15
48035;BME280;33812;46.480;6.834;2022-08-19T10:26:04;93814.66;;;23.64;54.26
48035;BME280;33812;46.480;6.834;2022-08-19T10:30:07;93811.88;;;23.64;54.18
48035;BME280;33812;46.480;6.834;2022-08-19T10:34:10;93818.22;;;23.65;55.02
48035;BME280;33812;46.480;6.834;2022-08-19T10:38:13;93827.31;;;23.65;54.80
48035;BME280;33812;46.480;6.834;2022-08-19T10:42:14;93827.31;;;23.65;54.19
48035;BME280;33812;46.480;6.834;2022-08-19T10:46:19;93827.00;;;23.63;54.65
48035;BME280;33812;46.480;6.834;2022-08-19T10:50:20;93827.63;;;23.67;53.70
48035;BME280;33812;46.480;6.834;2022-08-19T10:54:41;93831.94;;;23.69;53.47
48035;BME280;33812;46.480;6.834;2022-08-19T10:59:00;93833.19;;;23.67;54.12
48035;BME280;33812;46.480;6.834;2022-08-19T11:03:03;93825.94;;;23.70;53.87
48035;BME280;33812;46.480;6.834;2022-08-19T11:07:06;93835.81;;;23.71;53.84
48035;BME280;33812;46.480;6.834;2022-08-19T11:11:09;93829.63;;;23.67;53.88
48035;BME280;33812;46.480;6.834;2022-08-19T11:15:11;93826.06;;;23.66;53.56
48035;BME280;33812;46.480;6.834;2022-08-19T11:19:13;93837.94;;;23.67;53.98
48035;BME280;33812;46.480;6.834;2022-08-19T11:23:17;93826.06;;;23.66;54.14
48035;BME280;33812;46.480;6.834;2022-08-19T11:27:21;93827.63;;;23.67;54.29
48035;BME280;33812;46.480;6.834;2022-08-19T11:31:28;93835.63;;;23.65;54.16
48035;BME280;33812;46.480;6.834;2022-08-19T11:35:30;93838.41;;;23.65;54.21
48035;BME280;33812;46.480;6.834;2022-08-19T11:39:34;93836.38;;;23.66;54.40
48035;BME280;33812;46.480;6.834;2022-08-19T11:43:38;93840.84;;;23.63;54.60
48035;BME280;33812;46.480;6.834;2022-08-19T11:47:40;93837.94;;;23.67;54.38
48035;BME280;33812;46.480;6.834;2022-08-19T11:51:42;93839.94;;;23.66;54.59
48035;BME280;33812;46.480;6.834;2022-08-19T11:55:47;93845.94;;;23.65;54.39
48035;BME280;33812;46.480;6.834;2022-08-19T11:59:51;93841.19;;;23.65;55.05
48035;BME280;33812;46.480;6.834;2022-08-19T12:03:55;93847.50;;;23.66;54.24
48035;BME280;33812;46.480;6.834;2022-08-19T12:07:58;93847.94;;;23.64;54.60
48035;BME280;33812;46.480;6.834;2022-08-19T12:11:59;93836.56;;;23.62;54.67
48035;BME280;33812;46.480;6.834;2022-08-19T12:16:08;93852.75;;;23.64;54.05
48035;BME280;33812;46.480;6.834;2022-08-19T12:20:12;93859.69;;;23.69;54.32
48035;BME280;33812;46.480;6.834;2022-08-19T12:24:15;93846.41;;;23.63;53.92
48035;BME280;33812;46.480;6.834;2022-08-19T12:28:24;93851.19;;;23.63;53.45
48035;BME280;33812;46.480;6.834;2022-08-19T12:32:28;93849.19;;;23.63;53.55
48035;BME280;33812;46.480;6.834;2022-08-19T12:36:29;93853.50;;;23.64;53.51
48035;BME280;33812;46.480;6.834;2022-08-19T12:40:31;93855.06;;;23.65;53.34
48035;BME280;33812;46.480;6.834;2022-08-19T12:44:33;93853.50;;;23.64;53.50
48035;BME280;33812;46.480;6.834;2022-08-19T12:48:37;93861.19;;;23.60;53.80
48035;BME280;33812;46.480;6.834;2022-08-19T12:52:41;93857.84;;;23.65;53.86
48035;BME280;33812;46.480;6.834;2022-08-19T12:56:43;93845.31;;;23.61;53.74
48035;BME280;33812;46.480;6.834;2022-08-19T13:00:46;93859.50;;;23.63;53.77
48035;BME280;33812;46.480;6.834;2022-08-19T13:04:50;93865.16;;;23.59;53.26
48035;BME280;33812;46.480;6.834;2022-08-19T13:08:54;93868.34;;;23.48;53.29
48035;BME280;33812;46.480;6.834;2022-08-19T13:12:56;93872.53;;;23.53;53.08
48035;BME280;33812;46.480;6.834;2022-08-19T13:17:00;93873.19;;;23.57;53.29
48035;BME280;33812;46.480;6.834;2022-08-19T13:21:05;93870.72;;;23.59;52.91
48035;BME280;33812;46.480;6.834;2022-08-19T13:25:08;93876.28;;;23.59;54.09
48035;BME280;33812;46.480;6.834;2022-08-19T13:29:10;93880.94;;;23.62;53.73
48035;BME280;33812;46.480;6.834;2022-08-19T13:33:29;93881.69;;;23.63;53.26
48035;BME280;33812;46.480;6.834;2022-08-19T13:37:34;93882.28;;;23.58;54.29
48035;BME280;33812;46.480;6.834;2022-08-19T13:41:44;93883.38;;;23.60;53.82
48035;BME280;33812;46.480;6.834;2022-08-19T13:45:48;93871.19;;;23.58;53.94
48035;BME280;33812;46.480;6.834;2022-08-19T13:49:50;93873.81;;;23.61;53.83
48035;BME280;33812;46.480;6.834;2022-08-19T13:53:54;93866.75;;;23.60;54.46
48035;BME280;33812;46.480;6.834;2022-08-19T13:57:59;93873.03;;;23.61;54.47
48035;BME280;33812;46.480;6.834;2022-08-19T14:02:01;93871.97;;;23.58;54.57
48035;BME280;33812;46.480;6.834;2022-08-19T14:06:05;93882.59;;;23.60;54.53
48035;BME280;33812;46.480;6.834;2022-08-19T14:10:11;93881.53;;;23.57;54.36
48035;BME280;33812;46.480;6.834;2022-08-19T14:14:13;93874.28;;;23.60;54.11
48035;BME280;33812;46.480;6.834;2022-08-19T14:18:15;93871.19;;;23.58;54.38
48035;BME280;33812;46.480;6.834;2022-08-19T14:22:18;93865.50;;;23.61;54.51
48035;BME280;33812;46.480;6.834;2022-08-19T14:26:21;93858.88;;;23.59;55.01
48035;BME280;33812;46.480;6.834;2022-08-19T14:30:25;93864.41;;;23.59;54.95
48035;BME280;33812;46.480;6.834;2022-08-19T14:34:28;93870.09;;;23.55;55.59
48035;BME280;33812;46.480;6.834;2022-08-19T14:38:31;93872.41;;;23.57;55.11
48035;BME280;33812;46.480;6.834;2022-08-19T14:42:36;93871.50;;;23.60;55.18
48035;BME280;33812;46.480;6.834;2022-08-19T14:46:38;93866.28;;;23.62;54.71
48035;BME280;33812;46.480;6.834;2022-08-19T14:50:46;93865.03;;;23.63;55.10
48035;BME280;33812;46.480;6.834;2022-08-19T14:54:48;93862.72;;;23.61;54.99
48035;BME280;33812;46.480;6.834;2022-08-19T14:58:55;93864.28;;;23.62;54.67
48035;BME280;33812;46.480;6.834;2022-08-19T15:02:59;93871.06;;;23.61;55.80
48035;BME280;33812;46.480;6.834;2022-08-19T15:07:01;93881.22;;;23.64;56.52
48035;BME280;33812;46.480;6.834;2022-08-19T15:11:08;93884.00;;;23.64;56.91
48035;BME280;33812;46.480;6.834;2022-08-19T15:15:15;93888.81;;;23.64;56.81
48035;BME280;33812;46.480;6.834;2022-08-19T15:19:17;93895.88;;;23.65;56.50
48035;BME280;33812;46.480;6.834;2022-08-19T15:23:20;93895.25;;;23.61;56.87
48035;BME280;33812;46.480;6.834;2022-08-19T15:27:24;93903.56;;;23.61;56.61
48035;BME280;33812;46.480;6.834;2022-08-19T15:31:28;93906.34;;;23.61;56.97
48035;BME280;33812;46.480;6.834;2022-08-19T15:35:36;93915.09;;;23.59;57.28
48035;BME280;33812;46.480;6.834;2022-08-19T15:39:40;93911.50;;;23.49;57.62
48035;BME280;33812;46.480;6.834;2022-08-19T15:43:44;93910.13;;;23.54;57.23
48035;BME280;33812;46.480;6.834;2022-08-19T15:47:47;93914.81;;;23.57;56.85
48035;BME280;33812;46.480;6.834;2022-08-19T15:51:51;93906.06;;;23.46;57.04
48035;BME280;33812;46.480;6.834;2022-08-19T15:55:53;93913.38;;;23.52;56.78
48035;BME280;33812;46.480;6.834;2022-08-19T15:59:56;93920.72;;;23.46;57.28
48035;BME280;33812;46.480;6.834;2022-08-19T16:04:17;93924.91;;;23.51;57.14
48035;BME280;33812;46.480;6.834;2022-08-19T16:08:36;93928.47;;;23.51;57.16
48035;BME280;33812;46.480;6.834;2022-08-19T16:12:38;93921.56;;;23.56;57.14
48035;BME280;33812;46.480;6.834;2022-08-19T16:16:42;93930.88;;;23.62;56.99
48035;BME280;33812;46.480;6.834;2022-08-19T16:20:48;93922.84;;;23.64;56.06
48035;BME280;33812;46.480;6.834;2022-08-19T16:24:52;93930.59;;;23.70;55.87
48035;BME280;33812;46.480;6.834;2022-08-19T16:28:54;93920.41;;;23.66;56.39
48035;BME280;33812;46.480;6.834;2022-08-19T16:32:56;93929.06;;;23.69;55.76
48035;BME280;33812;46.480;6.834;2022-08-19T16:36:59;93938.63;;;23.67;55.72
48035;BME280;33812;46.480;6.834;2022-08-19T16:41:02;93939.38;;;23.68;55.05
48035;BME280;33812;46.480;6.834;2022-08-19T16:45:05;93938.91;;;23.70;54.99
48035;BME280;33812;46.480;6.834;2022-08-19T16:49:10;93937.38;;;23.69;54.82
48035;BME280;33812;46.480;6.834;2022-08-19T16:53:13;93940.94;;;23.69;54.36
48035;BME280;33812;46.480;6.834;2022-08-19T16:57:16;93939.81;;;23.66;54.02
48035;BME280;33812;46.480;6.834;2022-08-19T17:01:18;93941.41;;;23.67;53.91
48035;BME280;33812;46.480;6.834;2022-08-19T17:05:20;93939.38;;;23.68;53.85
48035;BME280;33812;46.480;6.834;2022-08-19T17:09:24;93928.97;;;23.59;53.55
48035;BME280;33812;46.480;6.834;2022-08-19T17:13:26;93931.75;;;23.59;53.13
48035;BME280;33812;46.480;6.834;2022-08-19T17:17:29;93923.38;;;23.50;52.76
48035;BME280;33812;46.480;6.834;2022-08-19T17:21:34;93933.81;;;22.84;53.60
48035;BME280;33812;46.480;6.834;2022-08-19T17:25:39;93929.63;;;22.66;54.15
48035;BME280;33812;46.480;6.834;2022-08-19T17:29:41;93935.47;;;22.42;53.17
48035;BME280;33812;46.480;6.834;2022-08-19T17:33:43;93929.91;;;23.08;52.11
48035;BME280;33812;46.480;6.834;2022-08-19T17:37:45;93926.63;;;23.22;51.46
48035;BME280;33812;46.480;6.834;2022-08-19T17:41:49;93928.22;;;23.23;51.05
48035;BME280;33812;46.480;6.834;2022-08-19T17:45:52;93926.53;;;23.26;51.23
48035;BME280;33812;46.480;6.834;2022-08-19T17:49:54;93925.09;;;23.21;51.33
48035;BME280;33812;46.480;6.834;2022-08-19T17:53:57;93924.50;;;23.39;50.51
48035;BME280;33812;46.480;6.834;2022-08-19T17:58:01;93934.47;;;23.50;51.31
48035;BME280;33812;46.480;6.834;2022-08-19T18:02:05;93935.09;;;23.54;51.26
48035;BME280;33812;46.480;6.834;2022-08-19T18:06:08;93941.88;;;23.53;50.54
48035;BME280;33812;46.480;6.834;2022-08-19T18:10:11;93936.91;;;23.48;50.58
48035;BME280;33812;46.480;6.834;2022-08-19T18:14:16;93951.13;;;23.50;50.82
48035;BME280;33812;46.480;6.834;2022-08-19T18:18:17;93958.53;;;23.53;50.95
48035;BME280;33812;46.480;6.834;2022-08-19T18:22:24;93957.63;;;23.56;51.04
48035;BME280;33812;46.480;6.834;2022-08-19T18:26:26;93953.19;;;23.59;51.04
48035;BME280;33812;46.480;6.834;2022-08-19T18:30:30;93953.66;;;23.57;51.00
48035;BME280;33812;46.480;6.834;2022-08-19T18:34:34;93954.19;;;23.52;50.83
48035;BME280;33812;46.480;6.834;2022-08-19T18:38:37;93971.16;;;23.54;51.35
48035;BME280;33812;46.480;6.834;2022-08-19T18:42:57;93980.28;;;23.54;51.27
48035;BME280;33812;46.480;6.834;2022-08-19T18:47:20;93976.25;;;23.55;51.46
48035;BME280;33812;46.480;6.834;2022-08-19T18:51:40;93981.94;;;23.52;51.46
48035;BME280;33812;46.480;6.834;2022-08-19T18:55:41;93991.81;;;23.53;51.14
48035;BME280;33812;46.480;6.834;2022-08-19T18:59:45;93991.69;;;23.57;51.68
48035;BME280;33812;46.480;6.834;2022-08-19T19:03:50;93996.47;;;23.56;51.07
48035;BME280;33812;46.480;6.834;2022-08-19T19:07:53;93992.78;;;23.59;51.48
48035;BME280;33812;46.480;6.834;2022-08-19T19:11:57;93996.91;;;23.54;51.26
48035;BME280;33812;46.480;6.834;2022-08-19T19:15:59;94002.13;;;23.52;51.56
48035;BME280;33812;46.480;6.834;2022-08-19T19:20:05;93999.56;;;23.58;50.85
48035;BME280;33812;46.480;6.834;2022-08-19T19:24:06;94006.34;;;23.57;51.24
48035;BME280;33812;46.480;6.834;2022-08-19T19:28:10;94002.00;;;23.56;50.56
48035;BME280;33812;46.480;6.834;2022-08-19T19:32:18;94004.66;;;23.60;50.39
48035;BME280;33812;46.480;6.834;2022-08-19T19:36:27;94015.56;;;23.54;50.34
48035;BME280;33812;46.480;6.834;2022-08-19T19:40:30;94014.47;;;23.51;50.31
48035;BME280;33812;46.480;6.834;2022-08-19T19:44:31;94016.78;;;23.53;50.58
48035;BME280;33812;46.480;6.834;2022-08-19T19:48:36;94023.88;;;23.54;50.66
48035;BME280;33812;46.480;6.834;2022-08-19T19:52:40;94026.97;;;23.56;50.92
48035;BME280;33812;46.480;6.834;2022-08-19T19:56:43;94031.31;;;23.57;50.26
48035;BME280;33812;46.480;6.834;2022-08-19T20:00:56;94025.78;;;23.57;50.16
48035;BME280;33812;46.480;6.834;2022-08-19T20:04:59;94024.09;;;23.60;50.56
48035;BME280;33812;46.480;6.834;2022-08-19T20:09:03;94021.97;;;23.64;50.40
48035;BME280;33812;46.480;6.834;2022-08-19T20:13:10;94032.41;;;23.60;50.18
48035;BME280;33812;46.480;6.834;2022-08-19T20:17:14;94031.63;;;23.59;50.64
48035;BME280;33812;46.480;6.834;2022-08-19T20:21:22;94024.53;;;23.58;49.99
48035;BME280;33812;46.480;6.834;2022-08-19T20:25:29;94029.41;;;23.54;50.05
48035;BME280;33812;46.480;6.834;2022-08-19T20:29:33;94036.78;;;23.48;50.11
48035;BME280;33812;46.480;6.834;2022-08-19T20:33:37;94037.41;;;23.52;49.86
48035;BME280;33812;46.480;6.834;2022-08-19T20:37:41;94038.88;;;23.57;50.46
48035;BME280;33812;46.480;6.834;2022-08-19T20:41:46;94035.31;;;23.56;50.93
48035;BME280;33812;46.480;6.834;2022-08-19T20:45:52;94030.09;;;23.58;50.84
48035;BME280;33812;46.480;6.834;2022-08-19T20:49:54;94025.00;;;23.57;51.10
48035;BME280;33812;46.480;6.834;2022-08-19T20:53:57;94032.06;;;23.58;51.06
48035;BME280;33812;46.480;6.834;2022-08-19T20:58:00;94020.00;;;23.51;51.18
48035;BME280;33812;46.480;6.834;2022-08-19T21:02:03;94021.44;;;23.56;51.18
48035;BME280;33812;46.480;6.834;2022-08-19T21:06:05;94021.88;;;23.54;50.67
48035;BME280;33812;46.480;6.834;2022-08-19T21:10:07;94020.66;;;23.55;50.75
48035;BME280;33812;46.480;6.834;2022-08-19T21:14:12;94025.44;;;23.55;51.15
48035;BME280;33812;46.480;6.834;2022-08-19T21:18:16;94022.66;;;23.55;50.28
48035;BME280;33812;46.480;6.834;2022-08-19T21:22:18;94023.75;;;23.58;50.34
48035;BME280;33812;46.480;6.834;2022-08-19T21:26:20;94016.56;;;23.60;50.39
48035;BME280;33812;46.480;6.834;2022-08-19T21:30:23;94018.66;;;23.56;50.52
48035;BME280;33812;46.480;6.834;2022-08-19T21:34:25;94017.25;;;23.51;50.52